Time;durP1;ratioP1;P1;durP2;ratioP2;P2;SDS_P1;SDS_P2;PMS_P1;PMS_P2;Temp;Humidity;BMP_temperature;BMP_pressure;BME280_temperature;BME280_humidity;BME280_pressure;Samples;Min_cycle;Max_cycle;Signal;HPM_P1;HPM_P2
2022/10/24 00:02:21;;;;;;;41.20;9.27;;;;;;;;;;4998843;28;20403;-68
2022/10/24 00:04:47;;;;;;;;;;;;;;;;;;4998751;28;20096;-67
2022/10/24 00:07:14;;;;;;;50.67;10.70;;;;;;;;;;5005174;28;20318;-68
2022/10/24 00:09:40;;;;;;;36.85;10.15;;;;;;;;;;4999709;28;20136;-68
2022/10/24 00:12:06;;;;;;;;;;;;;;;;;;4997492;28;20037;-68
2022/10/24 00:14:33;;;;;;;40.28;11.05;;;;;;;;;;4998788;28;19957;-68
2022/10/24 00:16:59;;;;;;;42.00;11.27;;;;;;;;;;4999153;28;20025;-68
2022/10/24 00:19:25;;;;;;;;;;;;;;;;;;4998372;28;20034;-67
2022/10/24 00:21:51;;;;;;;39.72;10.43;;;;;;;;;;5003066;28;19920;-68
2022/10/24 00:24:17;;;;;;;;;;;;;;;;;;4997375;28;20045;-68
2022/10/24 00:26:43;;;;;;;39.88;10.80;;;;;;;;;;4998382;28;19913;-68
2022/10/24 00:29:09;;;;;;;;;;;;;;;;;;5000721;28;20037;-68
2022/10/24 00:31:35;;;;;;;45.95;10.38;;;;;;;;;;4992897;28;20249;-67
2022/10/24 00:34:01;;;;;;;;;;;;;;;;;;4998010;28;20026;-67
2022/10/24 00:36:27;;;;;;;45.47;11.10;;;;;;;;;;4998243;28;19913;-68
2022/10/24 00:38:54;;;;;;;46.55;10.15;;;;;;;;;;5001138;28;20072;-68
2022/10/24 00:41:21;;;;;;;35.05;9.55;;;;;;;;;;4996092;28;20045;-67
2022/10/24 00:43:47;;;;;;;39.75;9.35;;;;;;;;;;5001523;28;20041;-68
2022/10/24 00:46:13;;;;;;;;;;;;;;;;;;5000196;28;20718;-68
2022/10/24 00:48:45;;;;;;;36.38;9.52;;;;;;;;;;4996321;28;19913;-68
2022/10/24 01:52:00;;;;;;;27.38;6.90;;;;;;;;;;5690095;23;20315;-68
2022/10/24 01:54:26;;;;;;;25.98;6.05;;;;;;;;;;4819319;29;20037;-68
2022/10/24 01:56:52;;;;;;;34.90;5.93;;;;;;;;;;4836891;29;20393;-68
2022/10/24 01:59:18;;;;;;;;;;;;;;;;;;4831584;29;20049;-68
2022/10/24 02:01:44;;;;;;;25.17;5.80;;;;;;;;;;4836306;29;19916;-68
2022/10/24 02:04:10;;;;;;;;;;;;;;;;;;4840741;29;20025;-67
2022/10/24 02:06:39;;;;;;;25.10;5.30;;;;;;;;;;4818881;29;20880;-68
2022/10/24 02:09:09;;;;;;;25.92;5.55;;;;;;;;;;4831980;29;20381;-68
2022/10/24 02:11:36;;;;;;;20.10;4.90;;;;;;;;;;4812952;29;20041;-68
2022/10/24 02:14:04;;;;;;;22.65;5.05;;;;;;;;;;4830615;29;20141;-68
2022/10/24 02:16:31;;;;;;;28.55;5.20;;;;;;;;;;4820624;29;20036;-67
2022/10/24 02:18:58;;;;;;;23.20;5.25;;;;;;;;;;4818749;29;20438;-68
2022/10/24 02:21:29;;;;;;;23.23;4.88;;;;;;;;;;4833360;29;20064;-68
2022/10/24 02:23:56;;;;;;;23.02;4.82;;;;;;;;;;4832949;29;20693;-67
2022/10/24 02:26:21;;;;;;;;;;;;;;;;;;4830278;29;20459;-68
2022/10/24 02:28:48;;;;;;;22.92;5.38;;;;;;;;;;4819437;29;19975;-68
2022/10/24 02:31:17;;;;;;;22.13;5.00;;;;;;;;;;4838595;29;20198;-68
2022/10/24 02:33:44;;;;;;;22.67;4.97;;;;;;;;;;4816971;29;20033;-67
2022/10/24 02:36:11;;;;;;;26.67;5.43;;;;;;;;;;4834024;29;20384;-67
2022/10/24 02:38:39;;;;;;;25.90;5.38;;;;;;;;;;4834597;29;20042;-67
2022/10/24 02:41:07;;;;;;;25.58;5.05;;;;;;;;;;4833345;29;20499;-67
2022/10/24 02:43:34;;;;;;;26.77;4.63;;;;;;;;;;4813908;29;20049;-67
2022/10/24 02:46:01;;;;;;;23.25;4.53;;;;;;;;;;4833253;29;20108;-67
2022/10/24 02:48:29;;;;;;;23.75;4.50;;;;;;;;;;4830352;29;20037;-67
2022/10/24 02:50:55;;;;;;;25.90;4.30;;;;;;;;;;4834752;29;20432;-67
2022/10/24 02:53:21;;;;;;;;;;;;;;;;;;4841691;29;20136;-67
2022/10/24 02:55:47;;;;;;;19.15;3.78;;;;;;;;;;4847677;29;20467;-67
2022/10/24 02:58:13;;;;;;;19.80;4.07;;;;;;;;;;4850688;29;20036;-67
2022/10/24 03:00:40;;;;;;;;;;;;;;;;;;4852075;29;20053;-67
2022/10/24 03:03:06;;;;;;;23.95;4.15;;;;;;;;;;4832964;29;19915;-69
2022/10/24 03:05:32;;;;;;;22.25;4.20;;;;;;;;;;4831815;29;20041;-69
2022/10/24 03:07:58;;;;;;;20.70;4.03;;;;;;;;;;4837850;29;20029;-67
2022/10/24 03:10:24;;;;;;;;;;;;;;;;;;4850440;29;20181;-67
2022/10/24 03:12:50;;;;;;;17.83;3.85;;;;;;;;;;4857138;29;19922;-67
2022/10/24 03:15:16;;;;;;;25.80;3.72;;;;;;;;;;4856798;29;20041;-67
2022/10/24 03:17:42;;;;;;;22.52;3.70;;;;;;;;;;4854039;29;20140;-67
2022/10/24 03:20:09;;;;;;;20.38;3.42;;;;;;;;;;4854840;29;20024;-69
2022/10/24 03:22:35;;;;;;;26.33;3.78;;;;;;;;;;4829974;29;20049;-67
2022/10/24 03:25:02;;;;;;;20.38;4.15;;;;;;;;;;4855483;29;20033;-68
2022/10/24 03:27:29;;;;;;;22.55;3.78;;;;;;;;;;4847246;29;20033;-68
2022/10/24 03:29:55;;;;;;;17.15;3.83;;;;;;;;;;4855157;29;20016;-67
2022/10/24 03:32:21;;;;;;;;;;;;;;;;;;4851132;29;20417;-68
2022/10/24 03:34:47;;;;;;;18.75;3.53;;;;;;;;;;4849937;29;19911;-68
2022/10/24 03:37:13;;;;;;;23.33;3.78;;;;;;;;;;4849066;29;20033;-68
2022/10/24 03:39:39;;;;;;;;;;;;;;;;;;4846176;29;20041;-68
2022/10/24 03:42:05;;;;;;;21.58;3.72;;;;;;;;;;4852192;29;19919;-68
2022/10/24 03:44:31;;;;;;;;;;;;;;;;;;4850382;29;20039;-68
2022/10/24 03:46:57;;;;;;;20.40;3.42;;;;;;;;;;4852976;29;20381;-68
2022/10/24 03:49:23;;;;;;;19.98;3.90;;;;;;;;;;4846669;29;20045;-68
2022/10/24 04:03:32;;;;;;;14.98;3.63;;;;;;;;;;5861247;23;20074;-68
2022/10/24 04:05:58;;;;;;;21.15;3.10;;;;;;;;;;4853871;29;20123;-68
2022/10/24 04:08:24;;;;;;;15.98;3.67;;;;;;;;;;4850076;29;20107;-68
2022/10/24 04:10:50;;;;;;;;;;;;;;;;;;4855375;29;20275;-68
2022/10/24 04:13:17;;;;;;;22.20;3.47;;;;;;;;;;4881803;29;19926;-67
2022/10/24 04:15:43;;;;;;;20.73;3.78;;;;;;;;;;4853997;29;20104;-68
2022/10/24 04:18:09;;;;;;;19.10;4.13;;;;;;;;;;4870772;29;20413;-68
2022/10/24 04:20:36;;;;;;;17.42;3.38;;;;;;;;;;4868210;29;20039;-67
2022/10/24 04:23:02;;;;;;;20.08;3.65;;;;;;;;;;4874664;29;20490;-67
2022/10/24 04:25:28;;;;;;;18.15;3.00;;;;;;;;;;4872128;29;20056;-67
2022/10/24 04:27:55;;;;;;;15.90;3.40;;;;;;;;;;4875061;29;20380;-67
2022/10/24 04:30:21;;;;;;;16.10;3.17;;;;;;;;;;4854282;29;20442;-67
2022/10/24 04:32:47;;;;;;;19.85;3.08;;;;;;;;;;4873829;29;20214;-67
2022/10/24 04:35:13;;;;;;;15.80;3.70;;;;;;;;;;4874252;29;20087;-67
2022/10/24 04:37:39;;;;;;;15.82;3.53;;;;;;;;;;4870214;29;20056;-67
2022/10/24 04:40:05;;;;;;;;;;;;;;;;;;4857500;29;20546;-66
2022/10/24 04:42:32;;;;;;;19.90;3.83;;;;;;;;;;4874646;29;19916;-66
2022/10/24 04:44:58;;;;;;;19.33;3.58;;;;;;;;;;4860143;29;20104;-66
2022/10/24 04:47:24;;;;;;;17.42;3.13;;;;;;;;;;4853456;29;20749;-67
2022/10/24 04:49:50;;;;;;;15.45;3.30;;;;;;;;;;4876243;29;20267;-67
2022/10/24 04:52:21;;;;;;;19.58;3.25;;;;;;;;;;4872863;29;20037;-67
2022/10/24 04:54:47;;;;;;;17.33;3.38;;;;;;;;;;4872149;29;20059;-67
2022/10/24 04:57:13;;;;;;;16.38;3.10;;;;;;;;;;4851908;29;20488;-67
2022/10/24 04:59:39;;;;;;;17.67;3.55;;;;;;;;;;4870863;29;20405;-67
2022/10/24 05:02:05;;;;;;;18.55;3.15;;;;;;;;;;4858380;29;20563;-67
2022/10/24 05:04:32;;;;;;;20.75;3.65;;;;;;;;;;4862912;29;20059;-69
2022/10/24 05:06:58;;;;;;;22.05;3.78;;;;;;;;;;4874609;29;20036;-67
2022/10/24 05:09:24;;;;;;;18.20;3.15;;;;;;;;;;4871353;29;20033;-69
2022/10/24 05:11:50;;;;;;;16.10;3.65;;;;;;;;;;4871612;29;20036;-67
2022/10/24 05:14:17;;;;;;;18.52;3.35;;;;;;;;;;4873124;29;20135;-67
2022/10/24 05:16:47;;;;;;;18.58;3.55;;;;;;;;;;4873402;29;20135;-67
2022/10/24 05:19:13;;;;;;;19.60;3.67;;;;;;;;;;4872278;29;20076;-67
2022/10/24 05:21:39;;;;;;;21.65;3.72;;;;;;;;;;4868261;29;20041;-67
2022/10/24 05:24:05;;;;;;;25.75;4.32;;;;;;;;;;4870693;29;20040;-67
2022/10/24 05:26:31;;;;;;;15.95;3.33;;;;;;;;;;4870334;29;20093;-67
2022/10/24 05:28:57;;;;;;;17.02;3.60;;;;;;;;;;4871176;29;20056;-67
2022/10/24 05:31:23;;;;;;;;;;;;;;;;;;4872351;29;20369;-67
2022/10/24 05:33:49;;;;;;;16.77;3.25;;;;;;;;;;4873760;29;20101;-66
2022/10/24 05:36:17;;;;;;;19.48;3.60;;;;;;;;;;4872032;29;20092;-66
2022/10/24 05:38:43;;;;;;;21.73;4.10;;;;;;;;;;4869071;29;20395;-67
2022/10/24 05:41:09;;;;;;;;;;;;;;;;;;4877478;29;20040;-67
2022/10/24 05:43:35;;;;;;;27.10;4.50;;;;;;;;;;4870763;29;19926;-67
2022/10/24 05:46:01;;;;;;;21.02;3.67;;;;;;;;;;4873790;29;20036;-67
2022/10/24 05:48:27;;;;;;;22.85;4.30;;;;;;;;;;4870466;29;20054;-67
2022/10/24 05:50:53;;;;;;;;;;;;;;;;;;4869403;29;20320;-67
2022/10/24 05:53:19;;;;;;;20.65;3.72;;;;;;;;;;4870885;29;19922;-67
2022/10/24 05:55:46;;;;;;;19.48;4.00;;;;;;;;;;4879844;29;20037;-67
2022/10/24 05:58:12;;;;;;;23.48;3.83;;;;;;;;;;4875748;29;20032;-67
2022/10/24 06:00:39;;;;;;;28.13;4.18;;;;;;;;;;4868670;29;20148;-67
2022/10/24 06:03:05;;;;;;;21.48;4.03;;;;;;;;;;4868035;29;20043;-67
2022/10/24 06:05:31;;;;;;;;;;;;;;;;;;4867086;29;20603;-67
2022/10/24 06:07:58;;;;;;;18.60;3.80;;;;;;;;;;4874908;29;19920;-67
2022/10/24 06:10:24;;;;;;;26.83;4.18;;;;;;;;;;4865048;29;20456;-67
2022/10/24 06:12:51;;;;;;;25.20;4.22;;;;;;;;;;4864111;29;20116;-67
2022/10/24 06:15:19;;;;;;;30.17;4.43;;;;;;;;;;4883931;29;20073;-67
2022/10/24 06:17:48;;;;;;;20.33;3.60;;;;;;;;;;4872675;29;20483;-68
2022/10/24 06:20:14;;;;;;;25.45;4.20;;;;;;;;;;4874412;29;20032;-68
2022/10/24 06:22:40;;;;;;;18.80;3.42;;;;;;;;;;4868749;29;20437;-68
2022/10/24 06:25:07;;;;;;;20.58;3.80;;;;;;;;;;4869176;29;20044;-68
2022/10/24 06:27:33;;;;;;;23.27;4.00;;;;;;;;;;4868314;29;20480;-68
2022/10/24 06:29:59;;;;;;;;;;;;;;;;;;4872762;29;20083;-68
2022/10/24 06:32:26;;;;;;;17.70;3.93;;;;;;;;;;4866514;29;19927;-68
2022/10/24 06:34:52;;;;;;;21.20;3.65;;;;;;;;;;4871517;29;20032;-68
2022/10/24 06:37:19;;;;;;;16.45;3.75;;;;;;;;;;4867895;29;20040;-68
2022/10/24 06:39:45;;;;;;;25.70;4.18;;;;;;;;;;4872107;29;20036;-68
2022/10/24 06:42:11;;;;;;;20.92;3.85;;;;;;;;;;4875731;29;20036;-68
2022/10/24 06:44:38;;;;;;;28.90;4.22;;;;;;;;;;4872483;29;20137;-68
2022/10/24 06:47:04;;;;;;;22.50;4.00;;;;;;;;;;4869897;29;20370;-68
2022/10/24 06:49:31;;;;;;;23.25;4.45;;;;;;;;;;4869615;29;20072;-69
2022/10/24 06:51:58;;;;;;;27.55;4.90;;;;;;;;;;4863206;29;20069;-68
2022/10/24 06:54:24;;;;;;;23.75;4.65;;;;;;;;;;4868799;29;20024;-68
2022/10/24 06:56:50;;;;;;;22.80;4.38;;;;;;;;;;4872260;29;20563;-67
2022/10/24 06:59:17;;;;;;;23.83;4.53;;;;;;;;;;4873819;29;20341;-67
2022/10/24 07:01:44;;;;;;;16.15;3.92;;;;;;;;;;4875488;29;20055;-69
2022/10/24 07:04:10;;;;;;;20.23;4.43;;;;;;;;;;4870276;29;20048;-67
2022/10/24 07:06:36;;;;;;;;;;;;;;;;;;4864715;29;20127;-68
2022/10/24 07:09:03;;;;;;;22.02;4.32;;;;;;;;;;4887351;29;20032;-67
2022/10/24 07:11:30;;;;;;;24.10;3.80;;;;;;;;;;4864810;29;20339;-68
2022/10/24 07:13:56;;;;;;;28.52;4.03;;;;;;;;;;4868509;29;20024;-67
2022/10/24 07:16:24;;;;;;;17.50;3.33;;;;;;;;;;4862695;29;20088;-67
2022/10/24 07:18:50;;;;;;;17.60;3.42;;;;;;;;;;4871071;29;20032;-67
2022/10/24 07:21:25;;;;;;;21.45;4.20;;;;;;;;;;4868039;29;20084;-67
2022/10/24 07:23:52;;;;;;;17.73;4.10;;;;;;;;;;4871666;29;20041;-67
2022/10/24 07:26:19;;;;;;;22.83;3.97;;;;;;;;;;4870586;29;20471;-68
2022/10/24 07:28:46;;;;;;;21.55;4.15;;;;;;;;;;4873547;29;20103;-67
2022/10/24 07:31:17;;;;;;;23.52;4.30;;;;;;;;;;4871841;29;20605;-67
2022/10/24 07:33:43;;;;;;;18.02;4.20;;;;;;;;;;4871690;29;20766;-67
2022/10/24 07:36:09;;;;;;;21.80;4.07;;;;;;;;;;4871112;29;20063;-67
2022/10/24 07:38:36;;;;;;;19.83;4.03;;;;;;;;;;4870839;29;20033;-68
2022/10/24 07:41:03;;;;;;;20.85;4.05;;;;;;;;;;4872444;29;20033;-67
2022/10/24 07:43:29;;;;;;;19.23;4.22;;;;;;;;;;4868130;29;20040;-67
2022/10/24 07:45:55;;;;;;;18.83;4.15;;;;;;;;;;4874761;29;20039;-67
2022/10/24 07:48:21;;;;;;;21.92;4.97;;;;;;;;;;4869433;29;20523;-67
2022/10/24 07:50:47;;;;;;;22.90;5.35;;;;;;;;;;4873295;29;20037;-67
2022/10/24 07:53:14;;;;;;;29.75;6.05;;;;;;;;;;4871239;29;20449;-68
2022/10/24 07:55:41;;;;;;;30.27;7.18;;;;;;;;;;4870083;29;20037;-67
2022/10/24 07:58:11;;;;;;;21.38;6.60;;;;;;;;;;4876386;29;20480;-67
2022/10/24 08:00:37;;;;;;;25.13;7.93;;;;;;;;;;4873562;29;25033;-67
2022/10/24 08:03:03;;;;;;;24.77;7.25;;;;;;;;;;4873134;29;20041;-67
2022/10/24 08:05:29;;;;;;;29.80;7.78;;;;;;;;;;4870900;29;20092;-68
2022/10/24 08:07:56;;;;;;;25.13;7.40;;;;;;;;;;4877181;29;20028;-68
2022/10/24 08:10:22;;;;;;;29.35;7.85;;;;;;;;;;4874940;29;20036;-68
2022/10/24 08:12:48;;;;;;;29.27;7.43;;;;;;;;;;4876878;29;20036;-68
2022/10/24 08:15:14;;;;;;;23.45;6.50;;;;;;;;;;4878519;29;20060;-66
2022/10/24 08:17:46;;;;;;;29.48;6.22;;;;;;;;;;4881119;29;20615;-68
2022/10/24 08:20:12;;;;;;;24.63;7.47;;;;;;;;;;4879967;29;20056;-68
2022/10/24 08:22:38;;;;;;;27.55;7.30;;;;;;;;;;4873952;29;20085;-66
2022/10/24 08:25:08;;;;;;;25.92;6.40;;;;;;;;;;4877259;29;20047;-66
2022/10/24 08:27:35;;;;;;;25.35;5.90;;;;;;;;;;4875529;29;20075;-66
2022/10/24 08:30:01;;;;;;;21.63;5.30;;;;;;;;;;4878314;29;20278;-66
2022/10/24 08:32:27;;;;;;;23.00;4.90;;;;;;;;;;4872536;29;20127;-66
2022/10/24 08:34:53;;;;;;;24.35;5.28;;;;;;;;;;4876993;29;20128;-66
2022/10/24 08:37:19;;;;;;;23.02;4.90;;;;;;;;;;4874347;29;20063;-68
2022/10/24 08:39:45;;;;;;;20.02;4.43;;;;;;;;;;4875457;29;20087;-67
2022/10/24 08:42:14;;;;;;;21.17;4.68;;;;;;;;;;4877876;29;20139;-67
2022/10/24 08:44:44;;;;;;;22.00;4.18;;;;;;;;;;4874591;29;20475;-66
2022/10/24 08:47:32;;;;;;;20.25;4.05;;;;;;;;;;4874494;29;20496;-66
2022/10/24 08:50:17;;;;;;;24.33;4.97;;;;;;;;;;4875468;29;20028;-68
2022/10/24 08:55:39;;;;;;;23.02;4.93;;;;;;;;;;5195886;23;19963;-68
2022/10/24 08:58:06;;;;;;;21.25;4.53;;;;;;;;;;4896276;29;20906;-68
2022/10/24 09:00:41;;;;;;;23.33;4.75;;;;;;;;;;4892785;29;20139;-67
2022/10/24 09:03:17;;;;;;;19.25;4.40;;;;;;;;;;4891955;29;20032;-67
2022/10/24 09:05:50;;;;;;;17.77;3.95;;;;;;;;;;4895575;29;20040;-67
2022/10/24 09:08:24;;;;;;;18.75;3.78;;;;;;;;;;4892549;29;20039;-67
2022/10/24 09:10:55;;;;;;;22.30;4.60;;;;;;;;;;4894526;29;20036;-67
2022/10/24 09:13:22;;;;;;;21.80;4.03;;;;;;;;;;4890342;29;20383;-68
2022/10/24 09:15:50;;;;;;;23.58;4.70;;;;;;;;;;4891410;29;20139;-67
2022/10/24 09:18:27;;;;;;;21.48;5.13;;;;;;;;;;4896297;29;20219;-66
2022/10/24 09:20:53;;;;;;;25.55;5.03;;;;;;;;;;4908352;29;20035;-66
2022/10/24 09:23:22;;;;;;;17.95;4.70;;;;;;;;;;4891201;29;20044;-69
2022/10/24 09:25:49;;;;;;;28.40;4.70;;;;;;;;;;4891969;29;20561;-68
2022/10/24 09:28:16;;;;;;;30.80;5.25;;;;;;;;;;4891801;29;20074;-68
2022/10/24 09:30:42;;;;;;;18.23;4.72;;;;;;;;;;4889949;29;20602;-68
2022/10/24 09:33:23;;;;;;;22.52;4.32;;;;;;;;;;4893804;29;20020;-68
2022/10/24 09:35:50;;;;;;;21.33;4.90;;;;;;;;;;4892893;29;20092;-68
2022/10/24 09:38:24;;;;;;;18.98;4.70;;;;;;;;;;4894577;29;20199;-68
2022/10/24 09:40:51;;;;;;;22.10;4.45;;;;;;;;;;4892528;29;20040;-67
2022/10/24 09:43:19;;;;;;;26.23;4.75;;;;;;;;;;4889715;29;20024;-67
2022/10/24 09:45:46;;;;;;;23.10;5.22;;;;;;;;;;4893430;29;20032;-67
2022/10/24 09:48:18;;;;;;;27.83;4.95;;;;;;;;;;4894671;29;20040;-66
2022/10/24 09:50:46;;;;;;;21.77;5.30;;;;;;;;;;4892628;29;20059;-69
2022/10/24 09:53:21;;;;;;;17.35;4.32;;;;;;;;;;4884909;29;20183;-69
2022/10/24 09:55:50;;;;;;;22.80;4.93;;;;;;;;;;4888590;29;20396;-67
2022/10/24 09:58:18;;;;;;;25.10;4.80;;;;;;;;;;4875286;29;20032;-67
2022/10/24 10:00:55;;;;;;;23.27;4.88;;;;;;;;;;4873327;29;20056;-67
2022/10/24 10:03:22;;;;;;;26.20;4.90;;;;;;;;;;4869187;29;20063;-67
2022/10/24 10:05:58;;;;;;;24.48;5.13;;;;;;;;;;4873677;29;20090;-67
2022/10/24 10:08:34;;;;;;;21.55;4.93;;;;;;;;;;4870182;29;20476;-67
2022/10/24 10:11:07;;;;;;;18.80;4.32;;;;;;;;;;4873237;29;20060;-67
2022/10/24 10:13:37;;;;;;;22.55;5.07;;;;;;;;;;4871700;29;20033;-67
2022/10/24 10:16:06;;;;;;;20.88;4.68;;;;;;;;;;4874084;29;20032;-67
2022/10/24 10:18:35;;;;;;;20.20;4.45;;;;;;;;;;4869837;29;20040;-67
2022/10/24 10:21:02;;;;;;;19.65;4.55;;;;;;;;;;4875043;29;20350;-67
2022/10/24 10:23:33;;;;;;;22.58;4.65;;;;;;;;;;4900595;29;20048;-67
2022/10/24 10:26:19;;;;;;;23.00;4.30;;;;;;;;;;4865110;29;20033;-67
2022/10/24 10:28:47;;;;;;;19.42;4.35;;;;;;;;;;4865388;29;20469;-68
2022/10/24 10:31:15;;;;;;;29.65;5.20;;;;;;;;;;4870515;29;20037;-67
2022/10/24 10:34:17;;;;;;;19.50;4.35;;;;;;;;;;4868318;29;20040;-69
2022/10/24 10:37:00;;;;;;;21.65;4.70;;;;;;;;;;4875844;29;20120;-67
2022/10/24 10:39:29;;;;;;;29.30;4.72;;;;;;;;;;4870853;29;20048;-69
2022/10/24 10:42:13;;;;;;;22.55;4.82;;;;;;;;;;4882919;29;20613;-68
2022/10/24 10:44:55;;;;;;;21.98;5.35;;;;;;;;;;4882825;29;20084;-67
2022/10/24 10:47:34;;;;;;;27.48;5.22;;;;;;;;;;4897039;28;20037;-67
2022/10/24 10:50:01;;;;;;;22.98;4.88;;;;;;;;;;4882686;29;20025;-69
2022/10/24 10:52:32;;;;;;;24.33;4.90;;;;;;;;;;4869534;29;20029;-69
2022/10/24 10:55:17;;;;;;;22.10;4.30;;;;;;;;;;4870293;29;20061;-69
2022/10/24 10:57:46;;;;;;;25.58;4.60;;;;;;;;;;4869239;29;20083;-69
2022/10/24 11:00:14;;;;;;;22.85;5.32;;;;;;;;;;4872730;29;20040;-69
2022/10/24 11:02:59;;;;;;;22.48;5.25;;;;;;;;;;4867978;29;20349;-69
2022/10/24 11:05:33;;;;;;;22.13;4.80;;;;;;;;;;4872682;29;20048;-68
2022/10/24 11:08:08;;;;;;;22.73;4.72;;;;;;;;;;4873195;29;20072;-67
2022/10/24 11:10:43;;;;;;;29.58;4.93;;;;;;;;;;4865893;29;20036;-69
2022/10/24 11:13:14;;;;;;;24.05;5.10;;;;;;;;;;4869281;29;20029;-67
2022/10/24 11:15:41;;;;;;;19.45;4.88;;;;;;;;;;4864707;29;20043;-67
2022/10/24 11:18:08;;;;;;;21.77;4.78;;;;;;;;;;4871111;29;20127;-69
2022/10/24 11:20:55;;;;;;;24.98;4.43;;;;;;;;;;4871331;29;20574;-67
2022/10/24 11:23:29;;;;;;;22.35;4.88;;;;;;;;;;4860327;29;20377;-67
2022/10/24 11:26:02;;;;;;;19.60;4.27;;;;;;;;;;4875275;29;20071;-67
2022/10/24 11:28:30;;;;;;;20.85;4.30;;;;;;;;;;4867224;29;20115;-67
2022/10/24 11:31:03;;;;;;;22.05;4.50;;;;;;;;;;4901083;29;20031;-68
2022/10/24 11:33:36;;;;;;;25.95;5.20;;;;;;;;;;4871810;29;20036;-68
2022/10/24 11:36:05;;;;;;;29.60;5.25;;;;;;;;;;4902084;29;20108;-68
2022/10/24 11:38:32;;;;;;;20.27;4.47;;;;;;;;;;4869281;29;20039;-68
2022/10/24 11:41:15;;;;;;;25.92;4.55;;;;;;;;;;4875150;29;20033;-68
2022/10/24 11:43:43;;;;;;;19.50;4.35;;;;;;;;;;4880020;29;20044;-68
2022/10/24 11:46:15;;;;;;;27.83;4.72;;;;;;;;;;4869183;29;20068;-68
2022/10/24 11:48:46;;;;;;;21.15;4.78;;;;;;;;;;4878709;29;20036;-68
2022/10/24 11:54:18;;;;;;;18.38;4.25;;;;;;;;;;5276987;23;20414;-69
2022/10/24 11:57:03;;;;;;;20.50;4.25;;;;;;;;;;4909694;29;20118;-69
2022/10/24 11:59:30;;;;;;;20.50;4.30;;;;;;;;;;4903559;29;20039;-69
2022/10/24 12:02:02;;;;;;;24.60;4.53;;;;;;;;;;4905725;29;20646;-68
2022/10/24 12:04:34;;;;;;;20.73;4.68;;;;;;;;;;4904478;29;20035;-69
2022/10/24 12:07:19;;;;;;;23.40;4.63;;;;;;;;;;4907690;29;20038;-67
2022/10/24 12:09:55;;;;;;;30.00;5.53;;;;;;;;;;4907756;29;20063;-68
2022/10/24 12:12:21;;;;;;;23.48;4.82;;;;;;;;;;4915811;28;20851;-68
2022/10/24 12:15:02;;;;;;;26.45;5.03;;;;;;;;;;4891996;29;20070;-67
2022/10/24 12:17:28;;;;;;;21.63;4.90;;;;;;;;;;4905241;29;20063;-68
2022/10/24 12:19:54;;;;;;;20.52;4.47;;;;;;;;;;4894481;29;20024;-69
2022/10/24 12:22:26;;;;;;;17.27;4.43;;;;;;;;;;4908800;29;20047;-68
2022/10/24 12:25:06;;;;;;;18.33;4.45;;;;;;;;;;4894410;29;20023;-68
2022/10/24 12:27:41;;;;;;;19.38;4.22;;;;;;;;;;4907224;29;20040;-68
2022/10/24 12:30:20;;;;;;;16.40;4.05;;;;;;;;;;4910665;29;20399;-68
2022/10/24 12:32:51;;;;;;;25.17;4.13;;;;;;;;;;4912587;29;20020;-68
2022/10/24 12:35:26;;;;;;;23.35;4.63;;;;;;;;;;4894424;29;20365;-67
2022/10/24 12:37:56;;;;;;;19.15;4.25;;;;;;;;;;4911772;29;20053;-68
2022/10/24 12:40:41;;;;;;;19.35;4.25;;;;;;;;;;4892144;29;20529;-67
2022/10/24 12:43:13;;;;;;;24.00;4.72;;;;;;;;;;4912982;29;20250;-68
2022/10/24 12:45:39;;;;;;;19.15;4.25;;;;;;;;;;4894818;29;20035;-68
2022/10/24 12:48:13;;;;;;;20.60;4.65;;;;;;;;;;4916171;29;20168;-68
2022/10/24 12:50:39;;;;;;;15.95;3.72;;;;;;;;;;4928584;28;20031;-69
2022/10/24 12:53:19;;;;;;;18.58;4.25;;;;;;;;;;4889190;29;20152;-69
2022/10/24 12:55:48;;;;;;;19.63;4.90;;;;;;;;;;4897950;29;20095;-68
2022/10/24 12:58:31;;;;;;;20.35;4.28;;;;;;;;;;4880203;29;20046;-67
2022/10/24 13:01:01;;;;;;;19.42;4.32;;;;;;;;;;4899632;29;20119;-67
2022/10/24 13:03:45;;;;;;;19.63;3.97;;;;;;;;;;4897217;29;20032;-68
2022/10/24 13:06:30;;;;;;;20.58;4.30;;;;;;;;;;4899370;29;20516;-68
2022/10/24 13:09:15;;;;;;;18.65;4.55;;;;;;;;;;4909933;29;20095;-68
2022/10/24 13:11:51;;;;;;;20.38;4.07;;;;;;;;;;4893285;29;20035;-68
2022/10/24 13:14:36;;;;;;;21.38;4.43;;;;;;;;;;4875755;29;20123;-68
2022/10/24 13:17:05;;;;;;;24.05;4.28;;;;;;;;;;4895401;29;20047;-68
2022/10/24 13:19:31;;;;;;;22.05;4.15;;;;;;;;;;4894371;29;20362;-69
2022/10/24 13:21:58;;;;;;;20.25;4.30;;;;;;;;;;4899504;29;20055;-68
2022/10/24 13:24:36;;;;;;;19.20;3.88;;;;;;;;;;4910042;29;20044;-68
2022/10/24 13:27:05;;;;;;;21.58;4.40;;;;;;;;;;4879645;29;20507;-69
2022/10/24 13:29:31;;;;;;;20.52;4.38;;;;;;;;;;4896054;29;20048;-68
2022/10/24 13:32:03;;;;;;;19.02;4.60;;;;;;;;;;4897525;29;20558;-69
2022/10/24 13:34:29;;;;;;;27.02;4.57;;;;;;;;;;4875489;29;20455;-68
2022/10/24 13:37:08;;;;;;;24.70;4.13;;;;;;;;;;4898984;29;20364;-68
2022/10/24 13:39:37;;;;;;;17.20;4.53;;;;;;;;;;4876346;29;20443;-69
2022/10/24 13:42:05;;;;;;;21.17;4.35;;;;;;;;;;4909034;29;20528;-69
2022/10/24 13:44:47;;;;;;;18.83;4.03;;;;;;;;;;4907184;29;20600;-68
2022/10/24 13:47:13;;;;;;;14.57;3.65;;;;;;;;;;4878504;29;20039;-69
2022/10/24 13:49:58;;;;;;;24.45;4.65;;;;;;;;;;4894192;29;20096;-68
2022/10/24 14:04:38;;;;;;;18.23;4.03;;;;;;;;;;5934992;23;20043;-66
2022/10/24 14:07:04;;;;;;;;;;;;;;;;;;4805664;29;20114;-68
2022/10/24 14:09:30;;;;;;;18.33;4.03;;;;;;;;;;4801211;29;19923;-68
2022/10/24 14:11:58;;;;;;;25.67;4.60;;;;;;;;;;4803916;29;20058;-68
2022/10/24 14:14:28;;;;;;;20.70;4.10;;;;;;;;;;4816888;29;20092;-68
2022/10/24 14:17:15;;;;;;;19.60;4.40;;;;;;;;;;4819217;29;20041;-68
2022/10/24 14:19:47;;;;;;;17.40;3.95;;;;;;;;;;4806804;29;20050;-68
2022/10/24 14:22:18;;;;;;;20.52;4.07;;;;;;;;;;4801708;29;20084;-68
2022/10/24 14:24:45;;;;;;;20.77;4.38;;;;;;;;;;4819897;29;20164;-68
2022/10/24 14:27:12;;;;;;;19.35;4.68;;;;;;;;;;4803149;29;20107;-68
2022/10/24 14:29:38;;;;;;;18.92;4.43;;;;;;;;;;4815703;29;20038;-68
2022/10/24 14:32:06;;;;;;;27.27;4.70;;;;;;;;;;4804222;29;20450;-68
2022/10/24 14:34:35;;;;;;;17.80;4.22;;;;;;;;;;4816799;29;20475;-67
2022/10/24 14:37:04;;;;;;;23.85;4.88;;;;;;;;;;4802791;29;20356;-68
2022/10/24 14:39:33;;;;;;;28.63;4.53;;;;;;;;;;4818036;29;20124;-68
2022/10/24 14:42:00;;;;;;;17.98;4.20;;;;;;;;;;4803829;29;20509;-68
2022/10/24 14:44:27;;;;;;;24.67;5.03;;;;;;;;;;4817060;29;20064;-68
2022/10/24 14:47:04;;;;;;;20.45;4.13;;;;;;;;;;4802237;29;20266;-68
2022/10/24 14:49:32;;;;;;;22.95;4.25;;;;;;;;;;4815539;29;20117;-69
2022/10/24 14:52:14;;;;;;;19.73;4.10;;;;;;;;;;4817841;29;20086;-68
2022/10/24 14:54:50;;;;;;;19.02;3.80;;;;;;;;;;4812004;29;20237;-68
2022/10/24 14:57:18;;;;;;;22.33;4.45;;;;;;;;;;4820239;29;20348;-68
2022/10/24 14:59:48;;;;;;;28.08;4.25;;;;;;;;;;4807365;29;20041;-68
2022/10/24 15:02:18;;;;;;;19.92;4.07;;;;;;;;;;4819042;29;20032;-68
2022/10/24 15:04:44;;;;;;;17.77;3.90;;;;;;;;;;4803499;29;20066;-68
2022/10/24 15:07:15;;;;;;;22.65;4.30;;;;;;;;;;4796564;29;20039;-67
2022/10/24 15:09:54;;;;;;;20.65;4.18;;;;;;;;;;4798170;29;20501;-68
2022/10/24 15:12:28;;;;;;;18.27;3.90;;;;;;;;;;4796281;29;20070;-68
2022/10/24 15:14:55;;;;;;;21.42;4.32;;;;;;;;;;4785167;29;20045;-68
2022/10/24 15:17:26;;;;;;;21.92;4.22;;;;;;;;;;4788291;29;20441;-68
2022/10/24 15:19:55;;;;;;;22.63;4.35;;;;;;;;;;4788064;29;20128;-68
2022/10/24 15:22:26;;;;;;;22.65;4.70;;;;;;;;;;4795416;29;20172;-67
2022/10/24 15:24:57;;;;;;;21.90;3.92;;;;;;;;;;4786749;29;20090;-68
2022/10/24 15:27:26;;;;;;;23.77;4.18;;;;;;;;;;4797558;29;20072;-68
2022/10/24 15:29:53;;;;;;;17.00;3.97;;;;;;;;;;4785025;29;20034;-68
2022/10/24 15:32:19;;;;;;;23.15;4.40;;;;;;;;;;4794753;29;20058;-68
2022/10/24 15:34:45;;;;;;;20.77;4.10;;;;;;;;;;4778666;29;20031;-67
2022/10/24 15:37:30;;;;;;;17.35;3.33;;;;;;;;;;4785088;29;20622;-68
2022/10/24 15:40:01;;;;;;;22.17;3.90;;;;;;;;;;4789881;29;20424;-69
2022/10/24 15:42:27;;;;;;;21.27;4.05;;;;;;;;;;4796739;29;20099;-69
2022/10/24 15:44:53;;;;;;;24.52;4.00;;;;;;;;;;4796832;29;20055;-68
2022/10/24 15:47:23;;;;;;;20.42;4.07;;;;;;;;;;4796553;29;20043;-68
2022/10/24 15:49:52;;;;;;;22.27;3.88;;;;;;;;;;4796967;29;20035;-68
2022/10/24 16:32:30;;;;;;;40.90;6.80;;;;;;;;;;5160909;23;20160;-68
2022/10/24 16:34:57;;;;;;;36.30;6.30;;;;;;;;;;4839933;29;20030;-68
2022/10/24 16:37:23;;;;;;;49.42;7.35;;;;;;;;;;4836226;29;20622;-67
2022/10/24 16:39:49;;;;;;;39.95;6.97;;;;;;;;;;4842676;29;20037;-67
2022/10/24 16:42:17;;;;;;;45.13;7.30;;;;;;;;;;4823928;29;20457;-68
2022/10/24 16:44:43;;;;;;;49.38;7.43;;;;;;;;;;4839670;29;20045;-68
2022/10/24 16:47:09;;;;;;;36.28;6.18;;;;;;;;;;4825051;29;20045;-68
2022/10/24 16:49:36;;;;;;;34.95;6.68;;;;;;;;;;4840435;29;20046;-68
2022/10/24 16:52:02;;;;;;;46.45;7.72;;;;;;;;;;4838416;29;20489;-68
2022/10/24 16:54:30;;;;;;;45.88;7.50;;;;;;;;;;4827032;29;20046;-68
2022/10/24 16:56:57;;;;;;;54.47;8.88;;;;;;;;;;4824897;29;20033;-68
2022/10/24 16:59:23;;;;;;;55.30;8.25;;;;;;;;;;4821878;29;20042;-67
2022/10/24 17:01:49;;;;;;;53.40;8.68;;;;;;;;;;4823023;29;20166;-68